sensor_id;sensor_type;location;lat;lon;timestamp;P1;durP1;ratioP1;P2;durP2;ratioP2
12369;SDS011;6249;52.128;9.986;2023-08-30T00:07:22;5.47;;;2.77;;
12369;SDS011;6249;52.128;9.986;2023-08-30T00:17:22;4.57;;;2.27;;
12369;SDS011;6249;52.128;9.986;2023-08-30T00:27:23;5.47;;;2.70;;
12369;SDS011;6249;52.128;9.986;2023-08-30T00:37:24;6.72;;;2.70;;
12369;SDS011;6249;52.128;9.986;2023-08-30T00:47:27;3.70;;;2.53;;
12369;SDS011;6249;52.128;9.986;2023-08-30T00:57:27;5.33;;;2.67;;
12369;SDS011;6249;52.128;9.986;2023-08-30T01:07:32;6.37;;;2.37;;
12369;SDS011;6249;52.128;9.986;2023-08-30T01:17:34;4.90;;;2.53;;
12369;SDS011;6249;52.128;9.986;2023-08-30T01:27:38;4.80;;;2.37;;
12369;SDS011;6249;52.128;9.986;2023-08-30T01:37:40;5.63;;;2.60;;
12369;SDS011;6249;52.128;9.986;2023-08-30T01:47:43;5.87;;;2.70;;
12369;SDS011;6249;52.128;9.986;2023-08-30T01:57:46;3.70;;;2.57;;
12369;SDS011;6249;52.128;9.986;2023-08-30T02:08:29;4.03;;;2.47;;
12369;SDS011;6249;52.128;9.986;2023-08-30T02:18:14;7.73;;;3.10;;
12369;SDS011;6249;52.128;9.986;2023-08-30T02:28:15;4.40;;;3.20;;
12369;SDS011;6249;52.128;9.986;2023-08-30T02:38:18;8.23;;;3.30;;
12369;SDS011;6249;52.128;9.986;2023-08-30T02:48:21;6.53;;;3.83;;
12369;SDS011;6249;52.128;9.986;2023-08-30T02:58:22;7.53;;;4.50;;
12369;SDS011;6249;52.128;9.986;2023-08-30T03:08:24;10.77;;;4.83;;
12369;SDS011;6249;52.128;9.986;2023-08-30T03:18:24;6.30;;;4.43;;
12369;SDS011;6249;52.128;9.986;2023-08-30T03:28:25;7.50;;;4.93;;
12369;SDS011;6249;52.128;9.986;2023-08-30T03:38:27;7.80;;;5.20;;
12369;SDS011;6249;52.128;9.986;2023-08-30T03:48:28;6.60;;;4.70;;
12369;SDS011;6249;52.128;9.986;2023-08-30T03:58:31;8.90;;;6.10;;
12369;SDS011;6249;52.128;9.986;2023-08-30T04:08:33;7.93;;;5.90;;
12369;SDS011;6249;52.128;9.986;2023-08-30T04:18:33;11.60;;;7.80;;
12369;SDS011;6249;52.128;9.986;2023-08-30T04:28:37;8.40;;;7.17;;
12369;SDS011;6249;52.128;9.986;2023-08-30T04:38:37;11.67;;;7.23;;
12369;SDS011;6249;52.128;9.986;2023-08-30T04:48:40;11.80;;;8.10;;
12369;SDS011;6249;52.128;9.986;2023-08-30T04:58:41;9.60;;;7.23;;
12369;SDS011;6249;52.128;9.986;2023-08-30T05:08:42;12.50;;;7.57;;
12369;SDS011;6249;52.128;9.986;2023-08-30T05:18:42;11.23;;;6.90;;
12369;SDS011;6249;52.128;9.986;2023-08-30T05:28:43;11.53;;;7.23;;
12369;SDS011;6249;52.128;9.986;2023-08-30T05:38:44;12.40;;;7.57;;
12369;SDS011;6249;52.128;9.986;2023-08-30T05:48:44;8.43;;;6.50;;
12369;SDS011;6249;52.128;9.986;2023-08-30T05:58:45;13.90;;;7.30;;
12369;SDS011;6249;52.128;9.986;2023-08-30T06:08:45;9.17;;;6.50;;
12369;SDS011;6249;52.128;9.986;2023-08-30T06:18:46;8.93;;;5.47;;
12369;SDS011;6249;52.128;9.986;2023-08-30T06:28:49;7.67;;;6.23;;
12369;SDS011;6249;52.128;9.986;2023-08-30T06:38:49;8.25;;;5.88;;
12369;SDS011;6249;52.128;9.986;2023-08-30T06:48:50;10.30;;;5.90;;
12369;SDS011;6249;52.128;9.986;2023-08-30T06:58:51;9.38;;;5.70;;
12369;SDS011;6249;52.128;9.986;2023-08-30T07:08:53;7.63;;;4.10;;
12369;SDS011;6249;52.128;9.986;2023-08-30T07:18:56;9.77;;;5.23;;
12369;SDS011;6249;52.128;9.986;2023-08-30T07:28:57;8.17;;;5.30;;
12369;SDS011;6249;52.128;9.986;2023-08-30T07:39:00;8.17;;;4.90;;
12369;SDS011;6249;52.128;9.986;2023-08-30T07:49:00;10.13;;;5.53;;
12369;SDS011;6249;52.128;9.986;2023-08-30T07:59:02;6.47;;;3.67;;
12369;SDS011;6249;52.128;9.986;2023-08-30T08:09:03;8.73;;;4.63;;
12369;SDS011;6249;52.128;9.986;2023-08-30T08:19:05;9.53;;;4.50;;
12369;SDS011;6249;52.128;9.986;2023-08-30T08:29:10;7.27;;;4.10;;
12369;SDS011;6249;52.128;9.986;2023-08-30T08:39:11;7.97;;;5.10;;
12369;SDS011;6249;52.128;9.986;2023-08-30T08:49:15;9.03;;;5.33;;
12369;SDS011;6249;52.128;9.986;2023-08-30T08:59:16;10.27;;;5.83;;
12369;SDS011;6249;52.128;9.986;2023-08-30T09:09:18;9.20;;;5.97;;
12369;SDS011;6249;52.128;9.986;2023-08-30T09:19:20;10.20;;;5.23;;
12369;SDS011;6249;52.128;9.986;2023-08-30T09:29:22;7.90;;;5.30;;
12369;SDS011;6249;52.128;9.986;2023-08-30T09:39:23;7.63;;;5.20;;
12369;SDS011;6249;52.128;9.986;2023-08-30T09:49:26;7.93;;;4.97;;
12369;SDS011;6249;52.128;9.986;2023-08-30T09:59:27;6.27;;;4.07;;
12369;SDS011;6249;52.128;9.986;2023-08-30T10:09:30;7.17;;;4.90;;
12369;SDS011;6249;52.128;9.986;2023-08-30T10:19:32;9.87;;;5.93;;
12369;SDS011;6249;52.128;9.986;2023-08-30T10:29:34;8.30;;;6.10;;
12369;SDS011;6249;52.128;9.986;2023-08-30T10:39:37;11.10;;;5.77;;
12369;SDS011;6249;52.128;9.986;2023-08-30T10:49:46;9.73;;;6.47;;
12369;SDS011;6249;52.128;9.986;2023-08-30T11:10:09;12.33;;;7.83;;
12369;SDS011;6249;52.128;9.986;2023-08-30T11:20:11;9.60;;;6.40;;
12369;SDS011;6249;52.128;9.986;2023-08-30T11:30:19;16.07;;;10.00;;
12369;SDS011;6249;52.128;9.986;2023-08-30T11:40:20;10.13;;;7.63;;
12369;SDS011;6249;52.128;9.986;2023-08-30T11:50:22;18.07;;;8.90;;
12369;SDS011;6249;52.128;9.986;2023-08-30T12:00:23;10.50;;;8.20;;
12369;SDS011;6249;52.128;9.986;2023-08-30T12:10:28;12.47;;;8.53;;
12369;SDS011;6249;52.128;9.986;2023-08-30T12:20:34;12.50;;;9.60;;
12369;SDS011;6249;52.128;9.986;2023-08-30T12:30:35;14.57;;;9.00;;
12369;SDS011;6249;52.128;9.986;2023-08-30T12:40:37;13.00;;;8.27;;
12369;SDS011;6249;52.128;9.986;2023-08-30T12:50:41;11.47;;;8.40;;
12369;SDS011;6249;52.128;9.986;2023-08-30T13:00:43;12.40;;;6.23;;
12369;SDS011;6249;52.128;9.986;2023-08-30T13:10:46;14.10;;;6.93;;
12369;SDS011;6249;52.128;9.986;2023-08-30T13:20:51;6.43;;;5.10;;
12369;SDS011;6249;52.128;9.986;2023-08-30T13:30:56;8.20;;;5.90;;
12369;SDS011;6249;52.128;9.986;2023-08-30T13:41:00;15.47;;;6.80;;
12369;SDS011;6249;52.128;9.986;2023-08-30T13:51:03;10.60;;;7.67;;
12369;SDS011;6249;52.128;9.986;2023-08-30T14:01:03;11.30;;;7.60;;
12369;SDS011;6249;52.128;9.986;2023-08-30T14:11:04;10.73;;;6.70;;
12369;SDS011;6249;52.128;9.986;2023-08-30T14:21:05;8.30;;;5.50;;
12369;SDS011;6249;52.128;9.986;2023-08-30T14:31:09;12.13;;;6.37;;
12369;SDS011;6249;52.128;9.986;2023-08-30T14:41:10;9.50;;;5.80;;
12369;SDS011;6249;52.128;9.986;2023-08-30T14:51:12;13.23;;;6.50;;
12369;SDS011;6249;52.128;9.986;2023-08-30T15:01:12;11.10;;;6.67;;
12369;SDS011;6249;52.128;9.986;2023-08-30T15:11:18;8.40;;;5.17;;
12369;SDS011;6249;52.128;9.986;2023-08-30T15:21:21;10.20;;;4.37;;
12369;SDS011;6249;52.128;9.986;2023-08-30T15:31:21;9.30;;;4.40;;
12369;SDS011;6249;52.128;9.986;2023-08-30T15:41:24;6.00;;;3.78;;
12369;SDS011;6249;52.128;9.986;2023-08-30T15:51:25;10.87;;;4.30;;
12369;SDS011;6249;52.128;9.986;2023-08-30T16:01:25;7.77;;;4.73;;
12369;SDS011;6249;52.128;9.986;2023-08-30T16:11:27;11.20;;;8.50;;
12369;SDS011;6249;52.128;9.986;2023-08-30T16:21:28;11.50;;;7.90;;
12369;SDS011;6249;52.128;9.986;2023-08-30T16:31:29;16.35;;;10.57;;
12369;SDS011;6249;52.128;9.986;2023-08-30T16:41:30;11.43;;;9.93;;
12369;SDS011;6249;52.128;9.986;2023-08-30T16:51:30;14.43;;;10.57;;
12369;SDS011;6249;52.128;9.986;2023-08-30T17:01:31;14.83;;;9.87;;
12369;SDS011;6249;52.128;9.986;2023-08-30T17:11:32;24.65;;;15.68;;
12369;SDS011;6249;52.128;9.986;2023-08-30T17:21:33;21.10;;;13.53;;
12369;SDS011;6249;52.128;9.986;2023-08-30T17:31:34;15.53;;;11.47;;
12369;SDS011;6249;52.128;9.986;2023-08-30T17:41:37;14.43;;;9.90;;
12369;SDS011;6249;52.128;9.986;2023-08-30T17:51:38;11.73;;;3.43;;
12369;SDS011;6249;52.128;9.986;2023-08-30T18:01:38;5.67;;;2.67;;
12369;SDS011;6249;52.128;9.986;2023-08-30T18:11:41;3.27;;;1.70;;
12369;SDS011;6249;52.128;9.986;2023-08-30T18:21:42;3.20;;;1.67;;
12369;SDS011;6249;52.128;9.986;2023-08-30T18:31:46;6.60;;;1.80;;
12369;SDS011;6249;52.128;9.986;2023-08-30T18:41:47;4.13;;;1.90;;
12369;SDS011;6249;52.128;9.986;2023-08-30T18:51:50;3.80;;;1.60;;
12369;SDS011;6249;52.128;9.986;2023-08-30T19:01:51;3.20;;;1.90;;
12369;SDS011;6249;52.128;9.986;2023-08-30T19:11:56;3.10;;;1.93;;
12369;SDS011;6249;52.128;9.986;2023-08-30T19:21:57;5.77;;;2.77;;
12369;SDS011;6249;52.128;9.986;2023-08-30T19:31:59;4.00;;;2.50;;
12369;SDS011;6249;52.128;9.986;2023-08-30T19:42:02;6.60;;;3.60;;
12369;SDS011;6249;52.128;9.986;2023-08-30T19:52:03;5.00;;;3.47;;
12369;SDS011;6249;52.128;9.986;2023-08-30T20:02:04;5.00;;;3.20;;
12369;SDS011;6249;52.128;9.986;2023-08-30T20:12:08;10.47;;;5.90;;
12369;SDS011;6249;52.128;9.986;2023-08-30T20:22:09;6.23;;;4.40;;
12369;SDS011;6249;52.128;9.986;2023-08-30T20:32:09;7.60;;;4.72;;
12369;SDS011;6249;52.128;9.986;2023-08-30T20:42:10;6.60;;;4.43;;
12369;SDS011;6249;52.128;9.986;2023-08-30T20:52:13;7.33;;;5.20;;
12369;SDS011;6249;52.128;9.986;2023-08-30T21:02:16;6.97;;;4.33;;
12369;SDS011;6249;52.128;9.986;2023-08-30T21:12:16;5.70;;;4.63;;
12369;SDS011;6249;52.128;9.986;2023-08-30T21:22:19;9.83;;;5.73;;
12369;SDS011;6249;52.128;9.986;2023-08-30T21:32:22;8.67;;;5.80;;
12369;SDS011;6249;52.128;9.986;2023-08-30T21:42:23;10.10;;;7.47;;
12369;SDS011;6249;52.128;9.986;2023-08-30T21:52:27;9.07;;;7.10;;
12369;SDS011;6249;52.128;9.986;2023-08-30T22:02:28;10.70;;;7.00;;
12369;SDS011;6249;52.128;9.986;2023-08-30T22:12:28;15.80;;;7.43;;
12369;SDS011;6249;52.128;9.986;2023-08-30T22:22:31;13.50;;;7.07;;
12369;SDS011;6249;52.128;9.986;2023-08-30T22:32:35;9.37;;;6.70;;
12369;SDS011;6249;52.128;9.986;2023-08-30T22:42:38;11.13;;;6.90;;
12369;SDS011;6249;52.128;9.986;2023-08-30T22:52:42;12.10;;;8.63;;
12369;SDS011;6249;52.128;9.986;2023-08-30T23:02:42;15.90;;;9.53;;
12369;SDS011;6249;52.128;9.986;2023-08-30T23:12:43;10.10;;;7.47;;
12369;SDS011;6249;52.128;9.986;2023-08-30T23:22:44;12.10;;;7.80;;
12369;SDS011;6249;52.128;9.986;2023-08-30T23:32:47;13.88;;;8.65;;
12369;SDS011;6249;52.128;9.986;2023-08-30T23:42:50;13.27;;;8.60;;
12369;SDS011;6249;52.128;9.986;2023-08-30T23:52:51;13.60;;;9.70;;
